Terminal Aerodrome Forecast
Issued by NWS

Current Version | Previous Version | Text Only | Print | Product List | Glossary On
Versions: 1 2 3 4 5 6 7 8 9 10 11 12 13 14
000
FTUS41 KPHI 211700 RRA
TAFPNE
TAF
KPNE 211741Z 2118/2218 31012G22KT P6SM SKC
     FM212100 29010KT P6SM SKC
     FM220100 VRB03KT P6SM SKC
     FM221400 23008KT P6SM SKC=

USA.gov is the U.S. government's official web portal to all federal, state and local government web resources and services.